createdAt,value
2022-09-15T00:00:22.692Z,33.70
2022-09-15T00:02:49.862Z,37.73
2022-09-15T00:05:17.303Z,42.40
2022-09-15T00:07:44.392Z,34.60
2022-09-15T00:10:11.565Z,36.60
2022-09-15T00:12:38.664Z,37.07
2022-09-15T00:15:06.415Z,45.70
2022-09-15T00:17:34.832Z,41.63
2022-09-15T00:20:02.091Z,36.70
2022-09-15T00:22:29.189Z,42.47
2022-09-15T00:24:56.249Z,42.10
2022-09-15T00:27:23.352Z,41.00
2022-09-15T00:29:50.416Z,50.20
2022-09-15T00:32:17.531Z,51.97
2022-09-15T00:34:46.006Z,53.27
2022-09-15T00:37:13.086Z,52.10
2022-09-15T00:39:40.180Z,57.00
2022-09-15T00:42:07.467Z,52.33
2022-09-15T00:44:54.855Z,47.47
2022-09-15T00:47:24.068Z,55.67
2022-09-15T00:49:58.415Z,56.27
2022-09-15T00:52:28.430Z,60.40
2022-09-15T00:54:56.766Z,53.73
2022-09-15T00:57:26.873Z,54.43
2022-09-15T00:59:56.317Z,57.70
2022-09-15T01:02:25.006Z,48.13
2022-09-15T01:04:58.126Z,53.77
2022-09-15T01:07:27.948Z,59.40
2022-09-15T01:09:57.577Z,58.87
2022-09-15T01:12:25.299Z,65.13
2022-09-15T01:14:52.437Z,56.97
2022-09-15T01:17:24.534Z,60.80
2022-09-15T01:20:18.777Z,69.63
2022-09-15T01:22:53.529Z,68.17
2022-09-15T01:25:25.896Z,56.40
2022-09-15T01:28:14.025Z,67.30
2022-09-15T01:30:44.173Z,66.57
2022-09-15T01:33:21.237Z,68.93
2022-09-15T01:35:51.824Z,61.10
2022-09-15T01:38:24.414Z,61.17
2022-09-15T01:40:53.486Z,68.17
2022-09-15T01:43:21.919Z,59.40
2022-09-15T01:45:51.244Z,64.13
2022-09-15T01:48:20.593Z,68.50
2022-09-15T01:50:51.822Z,62.13
2022-09-15T01:53:20.649Z,68.07
2022-09-15T01:55:51.634Z,74.60
2022-09-15T01:58:18.766Z,68.00
2022-09-15T02:00:48.386Z,83.27
2022-09-15T02:03:20.678Z,75.83
2022-09-15T02:05:52.553Z,76.90
2022-09-15T02:08:22.407Z,79.03
2022-09-15T02:10:52.960Z,82.43
2022-09-15T02:13:23.033Z,73.37
2022-09-15T02:15:51.520Z,77.77
2022-09-15T02:18:25.666Z,90.10
2022-09-15T02:20:53.519Z,87.20
2022-09-15T02:23:24.233Z,91.47
2022-09-15T02:25:54.360Z,76.80
2022-09-15T02:28:23.450Z,89.67
2022-09-15T02:30:51.407Z,88.63
2022-09-15T02:33:21.791Z,85.13
2022-09-15T02:35:48.999Z,91.77
2022-09-15T02:38:16.133Z,100.37
2022-09-15T02:40:44.186Z,96.27
2022-09-15T02:43:12.138Z,99.00
2022-09-15T02:45:39.325Z,91.50
2022-09-15T02:48:06.552Z,98.43
2022-09-15T02:50:34.970Z,110.93
2022-09-15T02:53:02.082Z,108.37
2022-09-15T02:55:29.354Z,91.67
2022-09-15T02:57:56.482Z,118.43
2022-09-15T03:00:23.706Z,84.30
2022-09-15T03:02:51.605Z,113.73
2022-09-15T03:05:19.901Z,100.83
2022-09-15T03:07:48.497Z,104.93
2022-09-15T03:10:15.669Z,96.03
2022-09-15T03:12:43.662Z,94.33
2022-09-15T03:15:11.725Z,101.90
2022-09-15T03:17:40.198Z,101.03
2022-09-15T03:20:08.182Z,92.43
2022-09-15T03:22:35.283Z,93.73
2022-09-15T03:25:04.527Z,89.63
2022-09-15T03:27:31.763Z,90.10
2022-09-15T03:29:58.947Z,104.00
2022-09-15T03:32:26.257Z,93.50
2022-09-15T03:34:56.441Z,85.47
2022-09-15T03:37:25.547Z,81.37
2022-09-15T03:39:52.745Z,94.30
2022-09-15T03:42:21.322Z,98.73
2022-09-15T03:44:48.443Z,91.40
2022-09-15T03:47:15.608Z,88.03
2022-09-15T03:49:42.852Z,91.10
2022-09-15T03:52:09.942Z,94.70
2022-09-15T03:54:37.045Z,79.57
2022-09-15T03:57:04.328Z,86.70
2022-09-15T03:59:32.786Z,68.80
2022-09-15T04:01:59.931Z,74.63
2022-09-15T04:04:27.218Z,80.90
2022-09-15T04:06:54.304Z,76.17
2022-09-15T04:09:21.432Z,65.93
2022-09-15T04:11:48.631Z,77.53
2022-09-15T04:14:15.733Z,71.20
2022-09-15T04:16:44.194Z,67.67
2022-09-15T04:19:11.301Z,68.07
2022-09-15T04:21:38.413Z,62.83
2022-09-15T04:24:05.532Z,54.30
2022-09-15T04:26:33.579Z,61.63
2022-09-15T04:29:04.310Z,57.73
2022-09-15T04:31:32.231Z,59.17
2022-09-15T04:34:00.966Z,55.50
2022-09-15T04:36:28.695Z,48.37
2022-09-15T04:38:56.003Z,51.40
2022-09-15T04:41:23.787Z,52.87
2022-09-15T04:43:51.254Z,62.20
2022-09-15T04:46:18.878Z,50.83
2022-09-15T04:48:46.471Z,49.73
2022-09-15T04:51:15.807Z,53.80
2022-09-15T04:53:43.079Z,47.37
2022-09-15T04:56:11.204Z,46.30
2022-09-15T04:58:39.006Z,44.73
2022-09-15T05:01:10.630Z,43.03
2022-09-15T05:03:38.196Z,46.17
2022-09-15T05:06:06.095Z,46.80
2022-09-15T05:08:34.580Z,51.33
2022-09-15T05:11:02.070Z,41.07
2022-09-15T05:13:29.181Z,45.13
2022-09-15T05:15:56.368Z,45.10
2022-09-15T05:18:23.459Z,38.93
2022-09-15T05:20:50.553Z,51.50
2022-09-15T05:23:17.655Z,59.23
2022-09-15T05:25:54.448Z,44.40
2022-09-15T05:28:21.578Z,41.33
2022-09-15T05:30:48.668Z,39.30
2022-09-15T05:33:15.807Z,38.10
2022-09-15T05:35:49.941Z,34.97
2022-09-15T05:38:17.054Z,37.30
2022-09-15T05:40:45.509Z,43.07
2022-09-15T05:43:12.624Z,34.83
2022-09-15T05:45:39.728Z,39.30
2022-09-15T05:48:06.804Z,37.83
2022-09-15T05:50:33.920Z,33.57
2022-09-15T05:53:01.014Z,38.90
2022-09-15T05:55:28.123Z,38.73
2022-09-15T05:57:56.628Z,35.93
2022-09-15T06:00:23.887Z,38.20
2022-09-15T06:02:51.014Z,42.50
2022-09-15T06:05:18.172Z,48.27
2022-09-15T06:07:45.282Z,34.10
2022-09-15T06:10:12.434Z,45.43
2022-09-15T06:12:39.523Z,40.63
2022-09-15T06:15:08.614Z,34.57
2022-09-15T06:17:35.715Z,28.70
2022-09-15T06:20:03.083Z,39.63
2022-09-15T06:22:30.193Z,31.33
2022-09-15T06:24:57.319Z,33.87
2022-09-15T06:27:24.494Z,42.33
2022-09-15T06:29:51.625Z,37.23
2022-09-15T06:32:20.040Z,45.77
2022-09-15T06:34:47.125Z,41.30
2022-09-15T06:37:14.239Z,35.20
2022-09-15T06:39:41.342Z,31.23
2022-09-15T06:42:10.312Z,35.90
2022-09-15T06:44:42.029Z,33.47
2022-09-15T06:47:09.151Z,30.20
2022-09-15T06:49:37.605Z,35.83
2022-09-15T06:52:04.717Z,27.20
2022-09-15T06:54:31.846Z,30.70
2022-09-15T06:56:59.015Z,30.67
2022-09-15T06:59:26.104Z,27.97
2022-09-15T07:01:53.468Z,31.20
2022-09-15T07:04:21.081Z,30.63
2022-09-15T07:06:49.913Z,30.57
2022-09-15T07:09:17.263Z,24.60
2022-09-15T07:11:44.347Z,24.00
2022-09-15T07:14:11.697Z,28.97
2022-09-15T07:16:38.939Z,28.73
2022-09-15T07:19:06.101Z,26.97
2022-09-15T07:21:34.073Z,23.23
2022-09-15T07:24:06.984Z,27.37
2022-09-15T07:26:34.575Z,29.53
2022-09-15T07:29:02.655Z,28.63
2022-09-15T07:31:31.359Z,26.20
2022-09-15T07:33:59.127Z,34.10
2022-09-15T07:36:26.294Z,30.27
2022-09-15T07:38:53.588Z,33.07
2022-09-15T07:41:23.155Z,27.30
2022-09-15T07:43:51.065Z,26.17
2022-09-15T07:46:18.737Z,26.20
2022-09-15T07:48:46.089Z,24.67
2022-09-15T07:51:13.372Z,26.70
2022-09-15T07:53:40.505Z,24.00
2022-09-15T07:56:08.115Z,26.13
2022-09-15T07:58:36.582Z,21.00
2022-09-15T08:01:03.949Z,27.00
2022-09-15T08:03:31.144Z,32.07
2022-09-15T08:05:58.677Z,24.77
2022-09-15T08:08:25.847Z,23.67
2022-09-15T08:10:52.961Z,23.53
2022-09-15T08:13:20.183Z,21.10
2022-09-15T08:15:48.880Z,17.30
2022-09-15T08:18:16.123Z,20.53
2022-09-15T08:20:43.667Z,22.53
2022-09-15T08:23:11.282Z,26.83
2022-09-15T08:25:38.715Z,22.50
2022-09-15T08:28:06.120Z,27.23
2022-09-15T08:30:33.233Z,20.80
2022-09-15T08:33:01.714Z,24.20
2022-09-15T08:35:30.025Z,19.53
2022-09-15T08:37:57.135Z,20.37
2022-09-15T08:40:27.092Z,23.97
2022-09-15T08:42:56.221Z,19.03
2022-09-15T08:45:25.063Z,21.80
2022-09-15T08:47:53.391Z,20.63
2022-09-15T08:50:25.227Z,18.53
2022-09-15T08:52:53.703Z,17.00
2022-09-15T08:55:23.773Z,20.80
2022-09-15T08:57:53.058Z,20.10
2022-09-15T09:00:20.310Z,16.17
2022-09-15T09:02:55.291Z,16.37
2022-09-15T09:05:30.697Z,17.10
2022-09-15T09:08:07.881Z,18.30
2022-09-15T09:10:40.055Z,18.63
2022-09-15T09:13:11.921Z,19.40
2022-09-15T09:15:45.540Z,14.37
2022-09-15T09:18:28.248Z,13.60
2022-09-15T09:21:02.755Z,16.57
2022-09-15T09:23:32.627Z,15.27
2022-09-15T09:26:00.670Z,13.73
2022-09-15T09:28:30.334Z,14.10
2022-09-15T09:30:59.364Z,14.20
2022-09-15T09:33:28.290Z,10.50
2022-09-15T09:35:55.947Z,12.00
2022-09-15T09:38:27.033Z,14.07
2022-09-15T09:40:57.484Z,11.87
2022-09-15T09:43:27.830Z,10.70
2022-09-15T09:45:54.996Z,10.63
2022-09-15T09:48:22.798Z,7.20
2022-09-15T09:50:50.221Z,8.40
2022-09-15T09:53:18.841Z,7.20
2022-09-15T09:55:47.358Z,11.63
2022-09-15T09:58:18.293Z,11.83
2022-09-15T10:00:45.421Z,6.67
2022-09-15T10:03:15.531Z,8.67
2022-09-15T10:05:42.828Z,9.07
2022-09-15T10:08:15.620Z,9.93
2022-09-15T10:10:51.559Z,11.07
2022-09-15T10:13:18.950Z,8.30
2022-09-15T10:15:50.799Z,7.40
2022-09-15T10:18:32.684Z,9.23
2022-09-15T10:21:00.201Z,10.87
2022-09-15T10:23:27.957Z,6.57
2022-09-15T10:25:59.962Z,8.83
2022-09-15T10:28:27.946Z,3.93
2022-09-15T10:30:59.489Z,5.40
2022-09-15T10:33:27.237Z,9.33
2022-09-15T10:35:55.109Z,4.17
2022-09-15T10:38:25.632Z,7.13
2022-09-15T10:40:56.632Z,6.87
2022-09-15T10:43:33.747Z,3.90
2022-09-15T10:46:02.690Z,4.67
2022-09-15T10:48:35.558Z,9.77
2022-09-15T10:51:10.350Z,8.27
2022-09-15T10:53:43.804Z,8.23
2022-09-15T10:56:16.764Z,4.43
2022-09-15T10:58:49.056Z,5.30
2022-09-15T11:01:26.436Z,4.93
2022-09-15T11:04:03.082Z,5.00
2022-09-15T11:06:33.632Z,6.73
2022-09-15T11:09:10.830Z,10.47
2022-09-15T11:11:42.546Z,2.87
2022-09-15T11:14:18.858Z,2.30
2022-09-15T11:16:51.838Z,3.30
2022-09-15T11:19:27.448Z,5.30
2022-09-15T11:21:57.504Z,3.43
2022-09-15T11:24:31.400Z,4.10
2022-09-15T11:27:00.931Z,4.57
2022-09-15T11:29:31.703Z,4.83
2022-09-15T11:34:35.224Z,4.37
2022-09-15T11:37:04.469Z,2.73
2022-09-15T11:39:35.380Z,9.47
2022-09-15T11:42:06.377Z,5.27
2022-09-15T11:44:35.665Z,6.10
2022-09-15T11:47:14.756Z,5.93
2022-09-15T11:49:45.433Z,3.90
2022-09-15T11:52:18.533Z,4.90
2022-09-15T11:54:47.258Z,4.53
2022-09-15T11:57:17.138Z,5.40
2022-09-15T11:59:49.680Z,2.97
2022-09-15T12:02:20.498Z,3.70
2022-09-15T12:04:56.104Z,6.43
2022-09-15T12:07:24.741Z,2.73
2022-09-15T12:09:51.869Z,7.97
2022-09-15T12:12:20.259Z,4.13
2022-09-15T12:14:49.735Z,2.40
2022-09-15T12:17:19.349Z,6.83
2022-09-15T12:19:52.903Z,5.53
2022-09-15T12:22:22.517Z,8.30
2022-09-15T12:24:57.790Z,4.20
2022-09-15T12:27:27.638Z,4.80
2022-09-15T12:29:57.208Z,6.57
2022-09-15T12:32:25.285Z,7.13
2022-09-15T12:34:56.957Z,3.03
2022-09-15T12:37:24.340Z,5.50
2022-09-15T12:39:51.945Z,9.30
2022-09-15T12:42:20.264Z,7.57
2022-09-15T12:44:49.601Z,4.33
2022-09-15T12:47:21.215Z,10.10
2022-09-15T12:49:49.518Z,6.40
2022-09-15T12:52:17.286Z,4.40
2022-09-15T12:54:45.528Z,7.77
2022-09-15T12:57:21.144Z,3.90
2022-09-15T12:59:48.257Z,5.03
2022-09-15T13:02:43.083Z,7.13
2022-09-15T13:05:12.600Z,11.60
2022-09-15T13:07:56.262Z,6.83
2022-09-15T13:10:28.397Z,9.77
2022-09-15T13:13:00.276Z,6.83
2022-09-15T13:15:28.327Z,3.67
2022-09-15T13:17:56.372Z,4.93
2022-09-15T13:20:30.489Z,7.63
2022-09-15T13:22:58.321Z,5.53
2022-09-15T13:25:27.976Z,10.10
2022-09-15T13:27:56.202Z,6.10
2022-09-15T13:30:29.532Z,5.57
2022-09-15T13:32:58.871Z,6.13
2022-09-15T13:35:40.886Z,3.50
2022-09-15T13:38:26.485Z,6.97
2022-09-15T13:41:15.483Z,5.60
2022-09-15T13:43:52.405Z,4.40
2022-09-15T13:46:26.986Z,4.30
2022-09-15T13:49:02.445Z,5.97
2022-09-15T13:51:31.910Z,6.33
2022-09-15T13:54:00.617Z,5.00
2022-09-15T13:56:28.582Z,6.50
2022-09-15T13:59:03.605Z,7.90
2022-09-15T14:01:34.415Z,6.30
2022-09-15T14:04:03.948Z,5.37
2022-09-15T14:06:34.706Z,8.80
2022-09-15T14:09:02.531Z,10.57
2022-09-15T14:11:30.949Z,7.00
2022-09-15T14:13:58.858Z,6.20
2022-09-15T14:16:31.244Z,5.30
2022-09-15T14:18:58.997Z,9.40
2022-09-15T14:21:27.122Z,9.63
2022-09-15T14:23:56.518Z,4.70
2022-09-15T14:26:24.635Z,5.70
2022-09-15T14:28:52.768Z,7.77
2022-09-15T14:31:27.567Z,9.40
2022-09-15T14:33:54.848Z,5.63
2022-09-15T14:36:23.325Z,6.67
2022-09-15T14:39:04.334Z,3.93
2022-09-15T14:41:32.340Z,5.40
2022-09-15T14:43:59.499Z,3.93
2022-09-15T14:46:35.699Z,6.63
2022-09-15T14:49:09.040Z,3.67
2022-09-15T14:51:36.183Z,3.70
2022-09-15T14:54:05.768Z,5.50
2022-09-15T14:56:35.566Z,2.30
2022-09-15T14:59:05.012Z,2.70
2022-09-15T15:01:34.863Z,5.83
2022-09-15T15:04:04.234Z,2.53
2022-09-15T15:06:35.469Z,3.63
2022-09-15T15:09:04.089Z,2.97
2022-09-15T15:11:33.910Z,1.60
2022-09-15T15:14:01.115Z,1.23
2022-09-15T15:16:29.178Z,12.30
2022-09-15T15:18:56.344Z,4.20
2022-09-15T15:21:35.887Z,2.60
2022-09-15T15:24:08.161Z,3.37
2022-09-15T15:26:37.793Z,3.13
2022-09-15T15:29:07.821Z,2.70
2022-09-15T15:31:38.907Z,1.70
2022-09-15T15:34:07.143Z,1.20
2022-09-15T15:36:35.148Z,1.67
2022-09-15T15:39:03.913Z,5.73
2022-09-15T15:41:32.347Z,2.90
2022-09-15T15:44:02.284Z,3.50
2022-09-15T15:46:45.049Z,5.50
2022-09-15T15:49:12.390Z,2.10
2022-09-15T15:51:39.585Z,3.57
2022-09-15T15:54:06.675Z,2.87
2022-09-15T15:56:37.769Z,4.47
2022-09-15T15:59:06.525Z,5.50
2022-09-15T16:01:33.715Z,4.17
2022-09-15T16:04:00.915Z,4.40
2022-09-15T16:06:27.994Z,2.63
2022-09-15T16:08:56.202Z,3.40
2022-09-15T16:11:23.309Z,7.67
2022-09-15T16:13:50.439Z,4.60
2022-09-15T16:16:19.891Z,1.80
2022-09-15T16:18:47.107Z,1.67
2022-09-15T16:21:16.980Z,3.27
2022-09-15T16:23:44.412Z,5.70
2022-09-15T16:26:14.154Z,4.07
2022-09-15T16:28:41.336Z,3.23
2022-09-15T16:31:10.010Z,4.83
2022-09-15T16:33:38.873Z,2.37
2022-09-15T16:36:06.176Z,6.03
2022-09-15T16:38:33.626Z,3.03
2022-09-15T16:41:01.165Z,4.63
2022-09-15T16:43:28.355Z,8.97
2022-09-15T16:45:55.597Z,4.60
2022-09-15T16:48:22.688Z,3.13
2022-09-15T16:51:16.843Z,4.93
2022-09-15T16:53:38.601Z,5.10
2022-09-15T16:56:06.357Z,6.23
2022-09-15T16:58:33.426Z,3.53
2022-09-15T17:01:00.554Z,4.47
2022-09-15T17:03:28.264Z,6.40
2022-09-15T17:05:57.750Z,7.73
2022-09-15T17:08:25.969Z,2.20
2022-09-15T17:10:53.102Z,4.33
2022-09-15T17:13:22.306Z,6.27
2022-09-15T17:15:51.422Z,5.10
2022-09-15T17:18:18.555Z,3.30
2022-09-15T17:20:46.601Z,4.10
2022-09-15T17:23:19.095Z,6.13
2022-09-15T17:25:47.018Z,5.90
2022-09-15T17:28:14.124Z,2.90
2022-09-15T17:30:41.498Z,5.37
2022-09-15T17:33:11.207Z,5.20
2022-09-15T17:35:38.546Z,4.93
2022-09-15T17:38:06.469Z,6.00
2022-09-15T17:40:35.302Z,10.83
2022-09-15T17:43:02.987Z,5.27
2022-09-15T17:45:31.688Z,7.53
2022-09-15T17:47:58.790Z,4.40
2022-09-15T17:50:27.257Z,5.30
2022-09-15T17:52:54.766Z,5.23
2022-09-15T17:55:22.796Z,4.23
2022-09-15T17:57:51.268Z,4.20
2022-09-15T18:00:19.147Z,2.60
2022-09-15T18:02:48.887Z,9.40
2022-09-15T18:05:20.698Z,3.80
2022-09-15T18:07:48.109Z,5.30
2022-09-15T18:10:15.827Z,4.20
2022-09-15T18:12:46.841Z,2.10
2022-09-15T18:15:18.488Z,3.17
2022-09-15T18:17:45.570Z,1.50
2022-09-15T18:20:16.160Z,4.40
2022-09-15T18:22:43.712Z,7.17
2022-09-15T18:25:18.694Z,6.50
2022-09-15T18:27:46.058Z,2.57
2022-09-15T18:30:13.385Z,3.03
2022-09-15T18:32:41.801Z,1.77
2022-09-15T18:35:09.187Z,1.97
2022-09-15T18:37:36.598Z,9.53
2022-09-15T18:40:04.349Z,5.50
2022-09-15T18:42:32.054Z,2.83
2022-09-15T18:44:59.256Z,2.93
2022-09-15T18:47:26.364Z,2.93
2022-09-15T18:49:54.927Z,4.20
2022-09-15T18:52:22.059Z,3.27
2022-09-15T18:54:49.142Z,5.33
2022-09-15T18:57:16.251Z,3.43
2022-09-15T18:59:43.365Z,2.57
2022-09-15T19:02:10.765Z,2.17
2022-09-15T19:04:40.618Z,5.50
2022-09-15T19:07:09.336Z,4.53
2022-09-15T19:09:36.682Z,5.33
2022-09-15T19:12:04.012Z,5.03
2022-09-15T19:14:31.186Z,4.87
2022-09-15T19:16:58.710Z,4.10
2022-09-15T19:19:25.957Z,6.70
2022-09-15T19:21:53.054Z,3.30
2022-09-15T19:24:21.495Z,5.00
2022-09-15T19:26:48.601Z,3.67
2022-09-15T19:29:15.723Z,3.70
2022-09-15T19:31:42.832Z,7.73
2022-09-15T19:34:10.232Z,2.33
2022-09-15T19:36:37.337Z,8.80
2022-09-15T19:39:04.481Z,4.50
2022-09-15T19:41:32.901Z,5.03
2022-09-15T19:44:01.631Z,9.17
2022-09-15T19:46:28.789Z,8.10
2022-09-15T19:48:56.019Z,3.43
2022-09-15T19:51:23.273Z,7.57
2022-09-15T19:53:53.357Z,5.63
2022-09-15T19:56:21.474Z,3.20
2022-09-15T19:58:50.168Z,4.50
2022-09-15T20:01:17.319Z,9.43
2022-09-15T20:03:44.672Z,3.30
2022-09-15T20:06:12.139Z,3.10
2022-09-15T20:08:39.349Z,5.03
2022-09-15T20:11:07.063Z,8.27
2022-09-15T20:13:34.194Z,5.33
2022-09-15T20:16:03.668Z,6.03
2022-09-15T20:18:30.776Z,3.13
2022-09-15T20:20:57.909Z,2.37
2022-09-15T20:23:25.003Z,3.20
2022-09-15T20:25:55.514Z,4.23
2022-09-15T20:28:22.640Z,3.97
2022-09-15T20:30:58.509Z,2.20
2022-09-15T20:33:27.043Z,5.60
2022-09-15T20:35:54.417Z,4.40
2022-09-15T20:38:21.650Z,3.53
2022-09-15T20:40:53.395Z,6.37
2022-09-15T20:43:20.537Z,6.37
2022-09-15T20:45:54.793Z,8.57
2022-09-15T20:48:21.902Z,3.63
2022-09-15T20:50:50.353Z,2.77
2022-09-15T20:53:17.464Z,6.03
2022-09-15T20:55:49.012Z,3.77
2022-09-15T20:58:16.110Z,2.40
2022-09-15T21:00:43.197Z,6.37
2022-09-15T21:03:10.295Z,6.43
2022-09-15T21:05:37.379Z,3.20
2022-09-15T21:08:05.825Z,12.23
2022-09-15T21:10:32.966Z,4.90
2022-09-15T21:13:00.052Z,4.40
2022-09-15T21:15:27.881Z,2.77
2022-09-15T21:17:54.953Z,7.37
2022-09-15T21:20:22.033Z,5.10
2022-09-15T21:22:53.408Z,4.77
2022-09-15T21:25:21.866Z,5.63
2022-09-15T21:27:48.987Z,2.20
2022-09-15T21:30:16.328Z,2.57
2022-09-15T21:32:43.434Z,5.63
2022-09-15T21:35:10.571Z,3.83
2022-09-15T21:37:37.690Z,4.80
2022-09-15T21:40:05.098Z,7.00
2022-09-15T21:42:33.593Z,8.40
2022-09-15T21:45:00.707Z,3.40
2022-09-15T21:47:27.764Z,2.70
2022-09-15T21:49:54.872Z,6.10
2022-09-15T21:52:21.946Z,2.30
2022-09-15T21:54:49.051Z,2.40
2022-09-15T21:57:16.138Z,7.93
2022-09-15T21:59:44.575Z,6.50
2022-09-15T22:02:11.742Z,4.00
2022-09-15T22:04:38.876Z,6.17
2022-09-15T22:07:05.984Z,6.37
2022-09-15T22:09:33.104Z,5.83
2022-09-15T22:12:00.246Z,3.20
2022-09-15T22:14:27.347Z,4.87
2022-09-15T22:16:55.809Z,4.60
2022-09-15T22:19:22.931Z,3.03
2022-09-15T22:21:50.013Z,7.87
2022-09-15T22:24:17.134Z,4.67
2022-09-15T22:26:44.436Z,6.57
2022-09-15T22:29:11.921Z,4.13
2022-09-15T22:31:39.115Z,4.43
2022-09-15T22:34:07.547Z,6.30
2022-09-15T22:36:34.658Z,3.00
2022-09-15T22:39:02.037Z,6.27
2022-09-15T22:41:29.143Z,4.10
2022-09-15T22:43:56.247Z,3.17
2022-09-15T22:46:23.408Z,4.20
2022-09-15T22:48:50.512Z,3.73
2022-09-15T22:51:18.945Z,3.80
2022-09-15T22:53:46.165Z,6.03
2022-09-15T22:56:14.106Z,4.23
2022-09-15T22:58:42.327Z,6.53
2022-09-15T23:02:07.398Z,7.60
2022-09-15T23:04:34.516Z,8.60
2022-09-15T23:07:01.646Z,6.00
2022-09-15T23:09:28.843Z,3.20
2022-09-15T23:11:55.942Z,5.13
2022-09-15T23:14:23.021Z,10.50
2022-09-15T23:16:50.108Z,10.67
2022-09-15T23:19:18.554Z,5.63
2022-09-15T23:21:45.661Z,5.03
2022-09-15T23:24:12.735Z,2.90
2022-09-15T23:26:39.848Z,6.13
2022-09-15T23:29:06.966Z,8.50
2022-09-15T23:31:34.135Z,4.60
2022-09-15T23:34:01.235Z,11.30
2022-09-15T23:36:29.709Z,4.40
2022-09-15T23:38:56.805Z,7.07
2022-09-15T23:41:23.903Z,4.67
2022-09-15T23:43:51.145Z,7.57
2022-09-15T23:46:18.272Z,5.20
2022-09-15T23:48:45.431Z,2.50
2022-09-15T23:51:12.540Z,7.60
2022-09-15T23:53:41.021Z,5.77
2022-09-15T23:56:08.124Z,9.80
2022-09-15T23:58:35.220Z,3.10
